Flight Track Log - Related Links

Times and Time Zones

All times are in EDT time to prevent confusion due to time zone crossing. See the SWA1719 flight status page for this flight to view local times or setup timezone preferences in your user account.

Time Position Orientation Groundspeed Altitude Reporting Facility
EDT Latitude Longitude Course Direction KTS MPH feet Rate Location/Type
Wed 11:59:04 AM 29.6333 -95.2653 156° South 143 165 800  Level Houston Center
Wed 12:00:12 PM 29.5847 -95.2400 156° South 198 228 3,900 3,023 Climbing Houston Center
Wed 12:01:13 PM 29.5356 -95.2075 150° Southeast 211 243 7,300 2,951 Climbing Houston Center
Wed 12:02:14 PM 29.5294 -95.1217 95° East 314 361 9,900 2,268 Climbing Houston Center
Wed 12:03:20 PM 29.5536 -95.0256 74° East 324 373 12,100 2,484 Climbing Houston Center
Wed 12:04:22 PM 29.5808 -94.9161 74° East 356 410 15,200 2,855 Climbing Houston Center
Wed 12:05:24 PM 29.6078 -94.8050 74° East 363 418 18,000 2,758 Climbing Houston Center
Wed 12:06:26 PM 29.6436 -94.6583 74° East 397 457 20,900 2,419 Climbing Houston Center
Wed 12:07:28 PM 29.6750 -94.5314 74° East 412 474 23,000 1,403 Climbing Houston Center
Wed 12:08:30 PM 29.7053 -94.4033 75° East 414 476 23,800 1,500 Climbing Houston Center
Wed 12:09:32 PM 29.7125 -94.2686 86° East 429 494 26,100 1,984 Climbing Houston Center
Wed 12:10:34 PM 29.6969 -94.1308 97° East 434 499 27,900 1,694 Climbing Houston Center
Wed 12:11:36 PM 29.6869 -93.9861 95° East 454 522 29,600 1,500 Climbing Houston Center
Wed 12:12:38 PM 29.6844 -93.8061 91° East 472 543 31,000 1,306 Climbing Houston Center
Wed 12:13:40 PM 29.6831 -93.6481 91° East 493 567 32,300 1,403 Climbing Houston Center
Wed 12:14:42 PM 29.6797 -93.4869 91° East 505 581 33,900 1,452 Climbing Houston Center
Wed 12:15:44 PM 29.6781 -93.3267 91° East 504 580 35,300 1,210 Climbing Houston Center
Wed 12:16:46 PM 29.6758 -93.1536 91° East 504 580 36,400 1,056 Climbing Houston Center
Wed 12:17:49 PM 29.6731 -92.9894 91° East 511 588 37,500 1,200 Climbing Houston Center
Wed 12:18:51 PM 29.6703 -92.8258 91° East 514 592 38,900 726 Climbing Houston Center
Wed 12:19:53 PM 29.6675 -92.6333 91° East 506 582 39,000 48 Climbing Houston Center
Wed 12:20:55 PM 29.6631 -92.4772 92° East 497 572 39,000  Level Houston Center
Wed 12:21:57 PM 29.6333 -92.3228 102° East 496 571 39,000  Level Houston Center
Wed 12:22:59 PM 29.6047 -92.1633 102° East 503 579 39,000  Level Houston Center
Wed 12:24:01 PM 29.5747 -92.0094 103° East 501 577 39,000  Level Houston Center
Wed 12:25:03 PM 29.5381 -91.8250 103° East 497 572 39,000  Level Houston Center
Wed 12:26:06 PM 29.5069 -91.6656 103° East 496 571 39,000  Level Houston Center
Wed 12:27:08 PM 29.4781 -91.5142 102° East 490 564 39,000  Level Houston Center
Wed 12:28:10 PM 29.4472 -91.3619 103° East 490 564 39,000  Level Houston Center
Wed 12:29:12 PM 29.4172 -91.2125 103° East 486 559 39,000  Level Houston Center
Wed 12:30:14 PM 29.3864 -91.0625 103° East 486 559 39,000  Level Houston Center
Wed 12:31:16 PM 29.3556 -90.9131 103° East 485 558 39,000  Level Houston Center
Wed 12:32:18 PM 29.3192 -90.7339 103° East 483 556 39,000  Level Houston Center
Wed 12:33:20 PM 29.2889 -90.5850 103° East 482 555 39,000  Level Houston Center
Wed 12:34:23 PM 29.2583 -90.4361 103° East 483 556 39,000  Level Houston Center
Wed 12:35:25 PM 29.2272 -90.2881 104° East 482 555 39,000  Level Houston Center
Wed 12:36:27 PM 29.1956 -90.1394 104° East 483 556 39,000  Level Houston Center
Wed 12:37:29 PM 29.1572 -89.9608 104° East 485 558 39,000  Level Houston Center
Wed 12:38:31 PM 29.1261 -89.8114 103° East 485 558 39,000  Level Houston Center
Wed 12:39:33 PM 29.0942 -89.6617 104° East 487 560 39,000  Level Houston Center
Wed 12:40:35 PM 29.0617 -89.5125 104° East 486 559 39,000  Level Houston Center
Wed 12:41:37 PM 29.0303 -89.3631 103° East 486 559 39,000  Level Houston Center
Wed 12:42:39 PM 28.9911 -89.1850 104° East 485 558 39,000  Level Houston Center
Wed 12:43:42 PM 28.9581 -89.0358 104° East 486 559 39,000  Level Houston Center
Wed 12:44:44 PM 28.9247 -88.8878 104° East 486 559 39,000  Level Houston Center
Wed 12:45:46 PM 28.8922 -88.7386 104° East 485 558 39,000  Level Houston Center
Wed 12:46:48 PM 28.8539 -88.5939 107° East 481 554 39,000  Level Houston Center
Wed 12:47:50 PM 28.8142 -88.4511 108° East 477 549 39,000  Level Houston Center
Wed 12:48:52 PM 28.7658 -88.2764 107° East 480 552 39,000  Level Houston Center
Wed 12:49:54 PM 28.7239 -88.1306 108° East 484 557 39,000  Level Houston Center
Wed 12:50:56 PM 28.6831 -87.9822 107° East 489 563 39,000  Level Houston Center
Wed 12:51:58 PM 28.6436 -87.8406 108° East 480 552 39,000  Level Houston Center
Wed 12:53:00 PM 28.6031 -87.6983 108° East 475 547 39,000  Level Houston Center
Wed 12:54:02 PM 28.5550 -87.5281 108° East 472 543 39,000  Level Houston Center
Wed 12:54:19 PM 28.5472 -87.5028 109° East 491 565 39,000 -390 Level Jacksonville Center
Wed 12:55:19 PM 28.5083 -87.3639 108° East 466 536 38,500 -750 Descending Jacksonville Center
Wed 12:56:19 PM 28.4672 -87.2231 108° East 466 536 37,500 -750 Descending Jacksonville Center
Wed 12:57:19 PM 28.4281 -87.0844 108° East 466 536 37,000 -250 Descending Jacksonville Center
Wed 12:58:19 PM 28.3906 -86.9531 108° East 459 528 37,000  Level Jacksonville Center
Wed 12:59:19 PM 28.3489 -86.8100 108° East 459 528 37,000  Level Jacksonville Center
Wed 01:00:19 PM 28.3053 -86.6692 109° East 459 528 37,000 -850 Level Jacksonville Center
Wed 01:01:19 PM 28.2653 -86.5311 108° East 459 528 35,300 -1,800 Descending Jacksonville Center
Wed 01:02:19 PM 28.2233 -86.3906 109° East 465 535 33,400 -1,150 Descending Jacksonville Center
Wed 01:03:19 PM 28.1814 -86.2478 108° East 471 542 33,000 -200 Descending Jacksonville Center
Wed 01:04:19 PM 28.1411 -86.1078 108° East 471 542 33,000  Level Jacksonville Center
Wed 01:05:19 PM 28.0986 -85.9697 109° East 466 536 33,000  Level Jacksonville Center
Wed 01:06:19 PM 28.0539 -85.8228 109° East 471 542 33,000  Level Jacksonville Center
Wed 01:07:19 PM 28.0131 -85.6875 109° East 473 544 33,000  Level Jacksonville Center
Wed 01:09:08 PM 27.9383 -85.4286 108° East 478 550 33,000  Level Miami Center
Wed 01:10:08 PM 27.9119 -85.2767 101° East 478 550 33,000  Level Miami Center
Wed 01:11:08 PM 27.9183 -85.1317 87° East 472 543 33,000  Level Miami Center
Wed 01:12:08 PM 27.9139 -84.9553 92° East 490 564 33,000  Level Miami Center
Wed 01:13:08 PM 27.9117 -84.8072 91° East 484 557 33,000 -400 Level Miami Center
Wed 01:14:08 PM 27.9111 -84.6642 90° East 473 544 32,200 -1,450 Descending Miami Center
Wed 01:15:08 PM 27.9144 -84.5236 88° East 455 524 30,100 -2,000 Descending Miami Center
Wed 01:16:08 PM 27.9136 -84.3853 90° East 449 517 28,200 -1,900 Descending Miami Center
Wed 01:17:08 PM 27.9183 -84.2517 88° East 438 504 26,300 -1,850 Descending Miami Center
Wed 01:18:08 PM 27.9122 -84.1269 93° East 418 481 24,500 -1,800 Descending Miami Center
Wed 01:19:08 PM 27.9144 -84.0028 89° East 404 465 22,700 -1,750 Descending Miami Center
Wed 01:20:08 PM 27.9142 -83.8806 90° East 394 453 21,000 -1,650 Descending Miami Center
Wed 01:21:08 PM 27.9156 -83.7658 89° East 379 436 19,400 -1,600 Descending Miami Center
Wed 01:22:08 PM 27.9147 -83.6531 90° East 369 425 17,800 -1,650 Descending Miami Center
Wed 01:23:08 PM 27.9133 -83.5450 91° East 356 410 16,100 -1,700 Descending Miami Center
Wed 01:24:08 PM 27.9122 -83.4369 91° East 346 398 14,400 -1,750 Descending Miami Center
Wed 01:25:08 PM 27.9128 -83.3336 90° East 346 398 12,600 -1,750 Descending Miami Center
Wed 01:26:08 PM 27.9214 -83.2333 84° East 334 384 10,900 -1,400 Descending Miami Center
Wed 01:27:08 PM 27.9686 -83.1536 56° Northeast 301 346 9,800 -1,100 Descending Miami Center
Wed 01:28:08 PM 28.0050 -83.0853 59° Northeast 289 333 8,700 -1,150 Descending Miami Center
Wed 01:29:08 PM 28.0519 -83.0125 54° Northeast 282 325 7,500 -850 Descending Miami Center
Wed 01:30:08 PM 28.0678 -82.9333 77° East 266 306 7,000 -750 Descending Miami Center
Wed 01:31:08 PM 28.0525 -82.8503 102° East 253 291 6,000 -652 Descending Miami Center
Wed 01:31:40 PM 28.0500 -82.8000 93° East 266 306 6,000 -612 Level Tampa TRACON
Wed 01:32:46 PM 28.0167 -82.7000 111° Southeast 265 305 5,000 -500 Descending Tampa TRACON
Wed 01:33:40 PM 28.0000 -82.6333 106° East 234 269 5,000 -56 Level Tampa TRACON
Wed 01:34:34 PM 27.9667 -82.6167 156° South 233 268 4,900 -900 Descending Tampa TRACON
Wed 01:35:40 PM 27.8833 -82.6167 180° South 230 265 3,200 -1,045 Descending Tampa TRACON
Wed 01:36:46 PM 27.8833 -82.5667 90° East 164 189 2,600 -1,053 Descending Tampa TRACON
Wed 01:37:34 PM 27.9000 -82.5500 41° Northeast 148 170 1,200 -1,222 Descending Tampa TRACON
Wed 01:38:34 PM 27.9500 -82.5500 360° North 146 168 400 -800 Descending Tampa TRACON
Wed 01:40:00 PM 27.9667 -82.5167 19° North  Level FlightAware Approximate
Wed 01:47:00 PM 27.9755 -82.5332 19° North  Level Estimated
Wed 01:48:00 PM 27.9755 -82.5332 19° North  Level Estimated

Login

Don't have an account? Register now (free) for customized features, flight alerts, and more!